Fukushima Airport Sukagawa JP
ICAO: RJSF
IATA:
Category: Medium
Scheduled Services:

Elevation: 1221 ft
TransAlt. 14000 ft.

Airport Communications:
RDO:118.05

RJSF Zoom In..

If you have problems with the map follow the link
https://www.worldairports.se/pages/airport.php?
ICAO=RJSF

Runways:

(A) RW 01 length 8202 ft width 197 ft
ILS 110.50 / hdg 10

(B) RW 19 length 8202 ft width 197 ft
---- / hdg 190

Location; RJSF
Day. 22 / Time. 11.00 Zulu
* QNH: 1025
* Temperature: 11° c. 51.8°f.
* Wind from: VRB° Speed 02 kn.
Dewpoint: 06° c.
Visibility: 10 km or more.
Clouds: Few 5000 ft.

RJSF 221100Z VRB02KT 9999 FEW050 11/06 Q1025


Wind From VRB°
Speed 02 kn.

 
 
jpsmedia.com for Web Design worldairports.se 2018   terms of use